Time;durP1;ratioP1;P1;durP2;ratioP2;P2;SDS_P1;SDS_P2;PMS_P1;PMS_P2;Temp;Humidity;BMP_temperature;BMP_pressure;BME280_temperature;BME280_humidity;BME280_pressure;Samples;Min_cycle;Max_cycle;Signal;HPM_P1;HPM_P2
2022/12/06 00:01:38;;;;;;;153.90;114.80;;;;;;;4.10;99.92;97945.82;104467;1332;22177;-84
2022/12/06 00:04:10;;;;;;;153.40;117.80;;;;;;;4.15;100.00;97946.33;104792;1322;22240;-85
2022/12/06 00:11:13;;;;;;;174.90;127.90;;;;;;;4.18;100.00;97934.94;104526;1329;22816;-85
2022/12/06 00:13:42;;;;;;;166.80;123.60;;;;;;;4.18;100.00;97934.36;104536;1329;22338;-84
2022/12/06 00:16:13;;;;;;;167.90;122.10;;;;;;;4.20;100.00;97930.64;104797;1323;22896;-84
2022/12/06 00:18:43;;;;;;;175.30;131.60;;;;;;;4.23;99.98;97926.75;104643;1318;22297;-85
2022/12/06 00:21:31;;;;;;;176.40;128.00;;;;;;;4.26;100.00;97925.51;104726;1329;22188;-85
2022/12/06 00:24:04;;;;;;;206.10;146.30;;;;;;;4.31;100.00;97926.81;104946;1307;22174;-85
2022/12/06 00:26:36;;;;;;;197.50;146.10;;;;;;;4.32;99.86;97929.96;104748;1329;22352;-86
2022/12/06 00:29:10;;;;;;;205.50;148.30;;;;;;;4.27;99.87;97931.47;104739;1329;22234;-86
2022/12/06 00:31:38;;;;;;;193.90;148.30;;;;;;;4.27;100.00;97930.69;104525;1329;22125;-84
2022/12/06 00:34:09;;;;;;;192.60;141.30;;;;;;;4.25;100.00;97928.53;104633;1327;22193;-85
2022/12/06 00:36:39;;;;;;;182.20;133.60;;;;;;;4.27;100.00;97926.79;104510;1329;22926;-85
2022/12/06 00:39:12;;;;;;;168.70;125.50;;;;;;;4.33;100.00;97923.36;104937;1322;22082;-86
2022/12/06 00:41:41;;;;;;;162.90;122.10;;;;;;;4.38;100.00;97920.59;104483;1330;22238;-86
2022/12/06 00:44:10;;;;;;;164.70;126.70;;;;;;;4.39;99.99;97916.02;104507;1330;22153;-85
2022/12/06 00:46:38;;;;;;;167.80;131.20;;;;;;;4.40;99.95;97918.06;104513;1324;22114;-86
2022/12/06 00:49:08;;;;;;;174.00;130.40;;;;;;;4.42;100.00;97916.15;104631;1330;22305;-85
2022/12/06 00:51:36;;;;;;;168.40;125.80;;;;;;;4.40;99.97;97914.43;104432;1314;22201;-86
2022/12/06 00:54:06;;;;;;;145.10;111.30;;;;;;;4.37;99.94;97915.90;104532;1330;23076;-85
2022/12/06 00:56:36;;;;;;;163.90;115.90;;;;;;;4.36;99.89;97911.10;104849;1323;22131;-85
2022/12/06 00:59:05;;;;;;;157.40;113.00;;;;;;;4.39;99.98;97903.70;104636;1330;22796;-85
2022/12/06 01:01:34;;;;;;;141.70;107.70;;;;;;;4.45;99.99;97899.10;104515;1330;22171;-85
2022/12/06 01:04:06;;;;;;;153.50;118.50;;;;;;;4.43;100.00;97895.19;104587;1326;22125;-84
2022/12/06 01:06:36;;;;;;;159.50;125.60;;;;;;;4.43;100.00;97890.70;104555;1329;22146;-84
2022/12/06 01:09:07;;;;;;;151.00;117.40;;;;;;;4.42;100.00;97890.37;104552;1321;22278;-85
2022/12/06 01:11:40;;;;;;;145.10;109.30;;;;;;;4.45;100.00;97886.29;104942;1314;22115;-84
2022/12/06 01:14:08;;;;;;;126.80;101.20;;;;;;;4.47;100.00;97882.94;104741;1329;22279;-85
2022/12/06 01:16:38;;;;;;;136.20;109.00;;;;;;;4.51;100.00;97877.46;104559;1329;22263;-86
2022/12/06 01:19:06;;;;;;;121.00;101.80;;;;;;;4.60;100.00;97873.92;104746;1329;22229;-85
2022/12/06 01:21:34;;;;;;;120.60;102.30;;;;;;;4.65;100.00;97873.52;104721;1329;22888;-85
2022/12/06 01:24:03;;;;;;;143.00;107.80;;;;;;;4.64;100.00;97873.41;104522;1328;22101;-86
2022/12/06 01:26:34;;;;;;;130.30;103.50;;;;;;;4.62;100.00;97872.42;104535;1329;22157;-85
2022/12/06 01:29:02;;;;;;;113.10;97.40;;;;;;;4.63;100.00;97867.05;104474;1329;22138;-85
2022/12/06 01:31:31;;;;;;;117.00;95.10;;;;;;;4.67;100.00;97859.86;104533;1329;22128;-85
2022/12/06 01:34:12;;;;;;;93.20;83.80;;;;;;;4.66;100.00;97857.98;104488;1332;22250;-84
2022/12/06 01:36:40;;;;;;;101.90;91.40;;;;;;;4.66;99.94;97851.63;104804;1311;23003;-84
2022/12/06 01:39:09;;;;;;;113.20;94.80;;;;;;;4.65;100.00;97852.76;104819;1314;22738;-85
2022/12/06 01:41:38;;;;;;;114.60;98.10;;;;;;;4.64;100.00;97847.73;104722;1329;22129;-83
2022/12/06 01:44:27;;;;;;;106.40;92.10;;;;;;;4.65;100.00;97835.96;104597;1330;22932;-83
2022/12/06 01:46:55;;;;;;;94.50;84.40;;;;;;;4.68;100.00;97829.02;104815;1320;22240;-85
2022/12/06 01:49:30;;;;;;;85.70;77.40;;;;;;;4.70;100.00;97826.71;104717;1329;22810;-84
2022/12/06 01:52:01;;;;;;;89.40;80.70;;;;;;;4.69;100.00;97820.20;104730;1323;22097;-85
2022/12/06 01:54:31;;;;;;;94.50;85.10;;;;;;;4.73;100.00;97812.59;104963;1322;22149;-85
2022/12/06 01:57:03;;;;;;;93.90;84.70;;;;;;;4.75;100.00;97811.69;104946;1321;22109;-84
2022/12/06 01:59:31;;;;;;;94.90;85.30;;;;;;;4.71;100.00;97806.17;104950;1316;22317;-83
2022/12/06 02:01:59;;;;;;;86.60;77.80;;;;;;;4.72;100.00;97800.41;104723;1329;22164;-84
2022/12/06 02:04:29;;;;;;;82.30;74.60;;;;;;;4.74;100.00;97792.56;104722;1323;22287;-86
2022/12/06 02:06:59;;;;;;;85.10;77.10;;;;;;;4.76;100.00;97788.67;104940;1322;22179;-84
2022/12/06 02:09:29;;;;;;;76.40;69.10;;;;;;;4.78;100.00;97782.81;104966;1322;22255;-84
2022/12/06 02:11:57;;;;;;;74.40;67.50;;;;;;;4.79;100.00;97778.11;104976;1321;22337;-85
2022/12/06 02:14:30;;;;;;;79.00;71.50;;;;;;;4.83;100.00;97774.61;104632;1329;22233;-85
2022/12/06 02:17:10;;;;;;;70.10;63.80;;;;;;;4.82;100.00;97774.11;104653;1329;22114;-85
2022/12/06 02:20:04;;;;;;;67.30;61.10;;;;;;;4.77;100.00;97769.14;104736;1329;22315;-84
2022/12/06 02:22:41;;;;;;;58.00;52.70;;;;;;;4.71;100.00;97770.51;104558;1323;22205;-85
2022/12/06 02:25:46;;;;;;;60.60;55.00;;;;;;;4.69;100.00;97768.33;104729;1328;22099;-86
2022/12/06 02:28:23;;;;;;;58.90;53.40;;;;;;;4.70;100.00;97766.45;104919;1311;22076;-85
2022/12/06 02:31:01;;;;;;;54.70;49.80;;;;;;;4.68;100.00;97764.38;104668;1329;22251;-85
2022/12/06 02:33:44;;;;;;;54.60;49.90;;;;;;;4.68;100.00;97760.16;104618;1329;22913;-85
2022/12/06 02:36:41;;;;;;;53.30;48.60;;;;;;;4.67;100.00;97750.16;104924;1322;22077;-86
2022/12/06 02:39:21;;;;;;;38.60;35.20;;;;;;;4.60;100.00;97734.89;104694;1329;22154;-86
2022/12/06 02:41:59;;;;;;;34.60;31.50;;;;;;;4.52;100.00;97726.38;104638;1330;22771;-86
2022/12/06 02:44:37;;;;;;;34.40;31.50;;;;;;;4.52;100.00;97717.79;104725;1328;22202;-85
2022/12/06 02:47:07;;;;;;;31.10;28.40;;;;;;;4.52;100.00;97716.84;104551;1329;22222;-85
2022/12/06 02:49:38;;;;;;;33.20;30.40;;;;;;;4.51;100.00;97710.11;104698;1329;22825;-86
2022/12/06 02:52:06;;;;;;;34.30;31.10;;;;;;;4.51;100.00;97710.21;104673;1330;22843;-85
2022/12/06 02:54:34;;;;;;;38.70;35.20;;;;;;;4.50;100.00;97708.98;104890;1322;22263;-85
2022/12/06 02:57:02;;;;;;;74.40;67.80;;;;;;;4.48;100.00;97704.77;104628;1329;22109;-86
2022/12/06 02:59:30;;;;;;;85.20;77.30;;;;;;;4.44;100.00;97704.23;104627;1329;22265;-85
2022/12/06 03:02:01;;;;;;;83.20;75.20;;;;;;;4.41;100.00;97696.95;104888;1317;22736;-85
2022/12/06 03:04:50;;;;;;;87.30;79.10;;;;;;;4.40;100.00;97697.05;104510;1329;22159;-86
2022/12/06 03:07:20;;;;;;;90.30;81.60;;;;;;;4.34;100.00;97693.27;104709;1329;22125;-85
2022/12/06 03:10:00;;;;;;;92.90;83.60;;;;;;;4.28;100.00;97695.02;104943;1322;22108;-86
2022/12/06 03:12:37;;;;;;;83.10;75.20;;;;;;;4.19;100.00;97693.38;104929;1322;22171;-86
2022/12/06 03:15:23;;;;;;;84.80;76.00;;;;;;;4.15;100.00;97692.45;104912;1308;22247;-85
2022/12/06 03:17:59;;;;;;;80.00;72.20;;;;;;;4.16;100.00;97689.21;104676;1329;22965;-85
2022/12/06 03:20:41;;;;;;;70.30;63.80;;;;;;;4.17;100.00;97692.63;104618;1329;22144;-85
2022/12/06 03:23:15;;;;;;;76.30;69.20;;;;;;;4.15;100.00;97693.58;104902;1308;22115;-85
2022/12/06 03:25:45;;;;;;;78.10;71.00;;;;;;;4.13;100.00;97690.31;104995;1322;22141;-85
2022/12/06 03:28:16;;;;;;;72.20;65.50;;;;;;;4.14;100.00;97687.71;104729;1323;22150;-85
2022/12/06 03:30:48;;;;;;;70.90;64.20;;;;;;;4.18;100.00;97683.67;104555;1329;22127;-85
2022/12/06 03:33:21;;;;;;;72.60;66.10;;;;;;;4.23;100.00;97678.52;104526;1329;22207;-84
2022/12/06 03:35:53;;;;;;;70.90;64.20;;;;;;;4.28;100.00;97672.75;104749;1329;22206;-85
2022/12/06 03:38:26;;;;;;;76.50;69.50;;;;;;;4.30;100.00;97666.05;104784;1329;23528;-85
2022/12/06 03:40:58;;;;;;;79.00;71.80;;;;;;;4.33;100.00;97669.30;104735;1328;22835;-84
2022/12/06 03:43:26;;;;;;;85.20;77.30;;;;;;;4.31;100.00;97665.52;104630;1329;22862;-85
2022/12/06 03:46:05;;;;;;;81.10;73.30;;;;;;;4.28;100.00;97665.89;104949;1308;22112;-85
2022/12/06 03:48:42;;;;;;;81.40;74.30;;;;;;;4.26;100.00;97657.50;104648;1322;22191;-85
2022/12/06 03:51:17;;;;;;;75.50;68.40;;;;;;;4.28;100.00;97651.20;104636;1329;22288;-83
2022/12/06 03:53:49;;;;;;;68.40;62.30;;;;;;;4.29;100.00;97642.64;104628;1329;22995;-83
2022/12/06 03:56:17;;;;;;;50.70;46.50;;;;;;;4.32;100.00;97642.31;104848;1329;22084;-84
2022/12/06 03:58:46;;;;;;;37.60;34.30;;;;;;;4.33;100.00;97643.38;104697;1329;22282;-84
2022/12/06 04:01:15;;;;;;;41.60;38.10;;;;;;;4.33;100.00;97652.40;104715;1329;22276;-84
2022/12/06 04:03:43;;;;;;;51.90;47.50;;;;;;;4.29;100.00;97662.16;104971;1311;22152;-84
2022/12/06 04:06:12;;;;;;;65.80;59.80;;;;;;;4.30;100.00;97668.23;104867;1329;22167;-84
2022/12/06 04:08:40;;;;;;;68.30;62.20;;;;;;;4.28;100.00;97663.59;104857;1329;22195;-84
2022/12/06 04:11:08;;;;;;;72.60;66.20;;;;;;;4.25;100.00;97661.98;104803;1329;22103;-84
2022/12/06 04:13:36;;;;;;;75.90;68.80;;;;;;;4.21;100.00;97664.06;104544;1326;22233;-85
2022/12/06 04:18:09;;;;;;;78.30;71.00;;;;;;;4.17;100.00;97667.34;104934;1314;22174;-84
2022/12/06 04:18:53;;;;;;;85.60;77.80;;;;;;;4.12;100.00;97659.54;104774;1329;22124;-84
2022/12/06 04:23:59;;;;;;;73.30;66.50;;;;;;;4.02;100.00;97664.05;104643;1329;22809;-84
2022/12/06 04:26:27;;;;;;;77.40;70.20;;;;;;;4.01;100.00;97672.47;104751;1329;22260;-85
2022/12/06 04:40:01;;;;;;;85.10;77.40;;;;;;;4.09;100.00;97672.98;104921;1322;22279;-85
2022/12/06 04:45:16;;;;;;;81.50;73.90;;;;;;;4.04;100.00;97680.76;104974;1322;22454;-85
2022/12/06 04:47:44;;;;;;;77.60;70.70;;;;;;;4.05;100.00;97683.20;104638;1329;22160;-84
2022/12/06 04:50:11;;;;;;;77.00;70.00;;;;;;;4.08;100.00;97681.23;104748;1329;22069;-85
2022/12/06 04:52:39;;;;;;;76.00;69.50;;;;;;;4.13;100.00;97677.90;104981;1322;22262;-84
2022/12/06 04:55:08;;;;;;;72.10;65.70;;;;;;;4.15;100.00;97674.42;104783;1329;22217;-86
2022/12/06 04:57:36;;;;;;;75.10;68.50;;;;;;;4.16;100.00;97668.84;104548;1329;22270;-84
2022/12/06 05:00:06;;;;;;;77.50;70.60;;;;;;;4.16;100.00;97666.02;104728;1329;22155;-84
2022/12/06 05:02:34;;;;;;;75.60;68.90;;;;;;;4.13;100.00;97645.84;104531;1330;22219;-84
2022/12/06 05:05:02;;;;;;;68.80;62.80;;;;;;;4.06;100.00;97640.02;104499;1329;22224;-84
2022/12/06 05:07:30;;;;;;;64.60;58.80;;;;;;;4.00;100.00;97636.04;104961;1322;22208;-84
2022/12/06 05:09:58;;;;;;;60.80;55.50;;;;;;;4.03;100.00;97630.14;104770;1330;22269;-84
2022/12/06 05:12:27;;;;;;;54.40;49.60;;;;;;;4.04;100.00;97628.49;104624;1328;22854;-84
2022/12/06 05:14:55;;;;;;;52.00;47.50;;;;;;;4.03;100.00;97631.68;104703;1328;22169;-83
2022/12/06 05:17:23;;;;;;;45.60;41.70;;;;;;;4.02;100.00;97634.23;104703;1329;22241;-84
2022/12/06 05:19:51;;;;;;;47.10;42.90;;;;;;;3.97;100.00;97636.25;104739;1328;22200;-83
2022/12/06 05:22:19;;;;;;;42.70;39.00;;;;;;;3.96;100.00;97636.04;104706;1328;22122;-84
2022/12/06 05:24:47;;;;;;;40.60;37.20;;;;;;;3.96;100.00;97632.84;104631;1329;22880;-84
2022/12/06 05:27:15;;;;;;;37.90;34.70;;;;;;;3.94;100.00;97632.40;104736;1329;22133;-84
2022/12/06 05:29:43;;;;;;;38.40;35.00;;;;;;;3.94;100.00;97638.38;104532;1327;22663;-84
2022/12/06 05:32:11;;;;;;;40.80;37.20;;;;;;;3.92;100.00;97636.08;104500;1329;22261;-84
2022/12/06 05:34:38;;;;;;;44.00;40.10;;;;;;;3.89;100.00;97635.05;104705;1328;22850;-85
2022/12/06 05:37:06;;;;;;;42.80;39.10;;;;;;;3.85;100.00;97631.20;104534;1329;22216;-84
2022/12/06 05:39:34;;;;;;;42.10;38.30;;;;;;;3.79;100.00;97627.13;104719;1329;22473;-84
2022/12/06 05:42:02;;;;;;;42.80;38.90;;;;;;;3.79;100.00;97628.89;104724;1328;22222;-84
2022/12/06 05:44:30;;;;;;;38.10;34.70;;;;;;;3.77;100.00;97627.81;104719;1329;22855;-84
2022/12/06 05:46:58;;;;;;;36.20;33.00;;;;;;;3.76;100.00;97619.61;104448;1330;22158;-85
2022/12/06 05:49:27;;;;;;;35.90;32.80;;;;;;;3.75;100.00;97619.17;104526;1329;22194;-84
2022/12/06 05:51:55;;;;;;;38.00;34.80;;;;;;;3.78;100.00;97617.38;104734;1329;22102;-88
2022/12/06 05:54:30;;;;;;;35.70;32.70;;;;;;;3.80;100.00;97614.92;104749;1321;22195;-85
2022/12/06 05:56:58;;;;;;;46.50;42.60;;;;;;;3.83;100.00;97618.30;104726;1328;22205;-87
2022/12/06 05:59:26;;;;;;;45.30;41.60;;;;;;;3.84;100.00;97613.08;104630;1329;22151;-87
2022/12/06 06:01:54;;;;;;;49.20;45.10;;;;;;;3.84;100.00;97619.36;104547;1324;22143;-87
2022/12/06 06:04:22;;;;;;;45.70;41.80;;;;;;;3.83;100.00;97617.40;104720;1329;22281;-86
2022/12/06 06:06:50;;;;;;;46.50;42.30;;;;;;;3.86;100.00;97617.61;104768;1329;22082;-86
2022/12/06 06:09:18;;;;;;;43.90;40.10;;;;;;;3.93;100.00;97613.80;104633;1329;22771;-85
2022/12/06 06:11:46;;;;;;;48.80;44.70;;;;;;;3.98;100.00;97609.23;104550;1329;22894;-86
2022/12/06 06:14:14;;;;;;;47.10;43.10;;;;;;;4.03;100.00;97605.50;104627;1329;22187;-86
2022/12/06 06:16:42;;;;;;;46.20;42.30;;;;;;;4.06;100.00;97600.77;104600;1329;22081;-86
2022/12/06 06:19:11;;;;;;;44.10;40.50;;;;;;;4.02;100.00;97596.81;104768;1311;22149;-86
2022/12/06 06:21:39;;;;;;;40.60;37.10;;;;;;;3.93;100.00;97602.27;104628;1329;22909;-84
2022/12/06 06:24:07;;;;;;;40.50;37.20;;;;;;;3.90;100.00;97600.77;104920;1317;22261;-85
2022/12/06 06:26:35;;;;;;;46.60;42.70;;;;;;;3.92;100.00;97606.97;104709;1327;22350;-85
2022/12/06 06:29:03;;;;;;;50.70;46.30;;;;;;;3.91;100.00;97611.80;104531;1330;22121;-86
2022/12/06 06:31:31;;;;;;;53.10;48.50;;;;;;;3.90;100.00;97606.80;104520;1329;22078;-87
2022/12/06 06:33:59;;;;;;;72.10;65.60;;;;;;;3.91;100.00;97596.99;104548;1315;22159;-87
2022/12/06 06:36:27;;;;;;;65.50;59.70;;;;;;;3.92;100.00;97600.09;104718;1330;22561;-87
2022/12/06 06:38:55;;;;;;;64.00;58.30;;;;;;;3.92;100.00;97596.20;104772;1329;22137;-88
2022/12/06 06:41:22;;;;;;;83.70;75.80;;;;;;;3.93;100.00;97597.70;104759;1329;22222;-87
2022/12/06 06:43:50;;;;;;;67.60;61.40;;;;;;;3.92;100.00;97597.95;104626;1329;22107;-85
2022/12/06 06:46:19;;;;;;;70.00;63.70;;;;;;;3.89;100.00;97598.52;104759;1329;22198;-87
2022/12/06 06:48:47;;;;;;;63.90;58.50;;;;;;;3.86;100.00;97597.67;104752;1329;22269;-87
2022/12/06 06:51:15;;;;;;;64.10;58.60;;;;;;;3.82;100.00;97598.58;104798;1329;22130;-86
2022/12/06 06:53:43;;;;;;;58.90;53.70;;;;;;;3.79;100.00;97598.35;104757;1329;22184;-87
2022/12/06 06:56:11;;;;;;;47.60;43.60;;;;;;;3.79;100.00;97598.71;104708;1329;22386;-86
2022/12/06 06:58:38;;;;;;;47.50;43.30;;;;;;;3.81;100.00;97590.15;104724;1329;23009;-86
2022/12/06 07:01:07;;;;;;;46.30;42.40;;;;;;;3.79;100.00;97590.62;104717;1329;22221;-86
2022/12/06 07:03:35;;;;;;;52.90;48.30;;;;;;;3.78;100.00;97590.23;104518;1319;22194;-86
2022/12/06 07:06:07;;;;;;;58.00;52.70;;;;;;;3.83;100.00;97590.84;104707;1329;22083;-86
2022/12/06 07:08:37;;;;;;;58.60;53.10;;;;;;;3.88;100.00;97583.17;104602;1330;23148;-87
2022/12/06 07:11:10;;;;;;;61.40;55.60;;;;;;;3.89;100.00;97582.88;104568;1329;22184;-86
2022/12/06 07:13:40;;;;;;;64.30;58.10;;;;;;;3.89;100.00;97581.84;104935;1308;22740;-88
2022/12/06 07:16:13;;;;;;;59.90;54.30;;;;;;;3.87;100.00;97574.86;104728;1329;22577;-84
2022/12/06 07:18:43;;;;;;;61.00;55.30;;;;;;;3.87;100.00;97572.83;104785;1323;22306;-86
2022/12/06 07:21:13;;;;;;;57.20;52.10;;;;;;;3.90;100.00;97573.80;104778;1322;118698;-86
2022/12/06 07:23:41;;;;;;;60.40;54.90;;;;;;;3.96;100.00;97571.05;104653;1324;22204;-83
2022/12/06 07:26:15;;;;;;;59.30;53.90;;;;;;;4.00;100.00;97569.40;104708;1329;22921;-86
2022/12/06 07:28:45;;;;;;;58.70;53.00;;;;;;;4.03;100.00;97575.11;104964;1322;22147;-87
2022/12/06 07:31:14;;;;;;;62.30;56.60;;;;;;;4.08;100.00;97570.69;104840;1325;22091;-86
2022/12/06 07:33:43;;;;;;;62.40;56.70;;;;;;;4.16;100.00;97568.41;104713;1317;22257;-86
2022/12/06 07:36:13;;;;;;;61.10;55.40;;;;;;;4.18;100.00;97568.84;104548;1330;22888;-85
2022/12/06 07:38:42;;;;;;;66.90;60.60;;;;;;;4.22;100.00;97564.04;104650;1329;22207;-85
2022/12/06 07:47:03;;;;;;;80.90;73.50;;;;;;;4.22;100.00;97561.65;104299;1329;22209;-85
2022/12/06 07:49:31;;;;;;;85.00;77.50;;;;;;;4.20;100.00;97560.84;104629;1329;22978;-87
2022/12/06 07:51:59;;;;;;;77.00;70.10;;;;;;;4.21;100.00;97560.31;104542;1330;22393;-88
2022/12/06 07:54:27;;;;;;;75.90;69.10;;;;;;;4.19;100.00;97565.38;104418;1330;22217;-88
2022/12/06 07:56:55;;;;;;;83.70;75.70;;;;;;;4.15;100.00;97569.95;104532;1330;22809;-85
2022/12/06 07:59:24;;;;;;;86.60;77.90;;;;;;;4.08;100.00;97563.92;104728;1329;22122;-85
2022/12/06 08:01:52;;;;;;;93.30;84.30;;;;;;;4.03;100.00;97564.92;104547;1329;22213;-85
2022/12/06 08:04:21;;;;;;;87.40;79.90;;;;;;;3.99;100.00;97559.54;104751;1329;22215;-85
2022/12/06 08:06:49;;;;;;;82.60;75.50;;;;;;;4.02;100.00;97556.06;104592;1330;22106;-86
2022/12/06 08:09:17;;;;;;;80.10;72.80;;;;;;;4.09;100.00;97552.56;104796;1325;22133;-85
2022/12/06 08:11:45;;;;;;;80.20;72.70;;;;;;;4.18;100.00;97549.86;104751;1329;22862;-85
2022/12/06 08:14:14;;;;;;;83.10;75.30;;;;;;;4.20;100.00;97545.06;104552;1333;22190;-85
2022/12/06 08:16:42;;;;;;;102.50;87.20;;;;;;;4.23;100.00;97541.74;104548;1329;22214;-85
2022/12/06 08:19:10;;;;;;;111.30;87.00;;;;;;;4.27;100.00;97538.55;104690;1329;22205;-85
2022/12/06 08:21:38;;;;;;;104.50;85.60;;;;;;;4.31;100.00;97544.20;104626;1333;22131;-85
2022/12/06 08:24:06;;;;;;;100.90;79.40;;;;;;;4.34;100.00;97544.79;104967;1322;22256;-85
2022/12/06 08:26:35;;;;;;;90.90;75.90;;;;;;;4.33;100.00;97548.64;104677;1329;22398;-85
2022/12/06 08:29:03;;;;;;;86.30;72.70;;;;;;;4.30;100.00;97550.29;104734;1329;22283;-85
2022/12/06 08:31:33;;;;;;;113.30;86.90;;;;;;;4.29;100.00;97552.52;104730;1330;22254;-84
2022/12/06 08:34:02;;;;;;;137.10;91.80;;;;;;;4.30;100.00;97553.06;104709;1329;22308;-85
2022/12/06 08:36:30;;;;;;;98.40;82.90;;;;;;;4.30;100.00;97549.75;104746;1322;22134;-85
2022/12/06 08:38:59;;;;;;;120.40;91.30;;;;;;;4.27;100.00;97550.92;104644;1329;22208;-86
2022/12/06 08:44:14;;;;;;;100.60;80.80;;;;;;;4.33;100.00;97549.80;104747;1329;22204;-84
2022/12/06 08:46:43;;;;;;;97.40;77.30;;;;;;;4.35;100.00;97549.65;104551;1330;22219;-85
2022/12/06 08:49:12;;;;;;;94.20;76.70;;;;;;;4.38;100.00;97551.14;104571;1332;22202;-85
2022/12/06 08:51:42;;;;;;;101.70;77.90;;;;;;;4.44;100.00;97548.80;104734;1330;22556;-85
2022/12/06 08:54:13;;;;;;;89.20;72.90;;;;;;;4.44;100.00;97550.19;105010;1323;22093;-84
2022/12/06 08:56:41;;;;;;;91.20;80.00;;;;;;;4.42;100.00;97549.81;104706;1333;22990;-84
2022/12/06 08:59:10;;;;;;;117.40;91.30;;;;;;;4.41;100.00;97555.58;104622;1336;22153;-85
2022/12/06 09:01:39;;;;;;;129.60;96.00;;;;;;;4.41;100.00;97549.39;104560;1331;22190;-86
2022/12/06 09:04:09;;;;;;;135.90;97.70;;;;;;;4.45;100.00;97548.95;104538;1330;23886;-84
2022/12/06 09:06:38;;;;;;;117.50;94.90;;;;;;;4.49;100.00;97546.39;104760;1334;22163;-84
2022/12/06 09:09:08;;;;;;;94.90;79.90;;;;;;;4.55;100.00;97547.83;104973;1315;22284;-84
2022/12/06 09:11:38;;;;;;;101.10;84.90;;;;;;;4.56;100.00;97541.80;104606;1329;22233;-85
2022/12/06 09:14:10;;;;;;;93.10;83.40;;;;;;;4.53;100.00;97538.17;104585;1334;22241;-84
2022/12/06 09:16:43;;;;;;;86.80;78.60;;;;;;;4.53;100.00;97534.91;104619;1336;22118;-85
2022/12/06 09:19:12;;;;;;;89.80;80.20;;;;;;;4.58;100.00;97531.33;104945;1316;22190;-84
2022/12/06 09:21:42;;;;;;;90.20;81.50;;;;;;;4.59;100.00;97533.89;104555;1336;23013;-85
2022/12/06 09:24:13;;;;;;;81.80;73.70;;;;;;;4.56;100.00;97527.92;104939;1322;22205;-84
2022/12/06 09:26:41;;;;;;;83.60;75.40;;;;;;;4.53;100.00;97526.80;104628;1335;22145;-84
2022/12/06 09:29:09;;;;;;;78.30;71.10;;;;;;;4.58;100.00;97526.15;104926;1314;22545;-85
2022/12/06 09:31:39;;;;;;;79.10;72.00;;;;;;;4.63;100.00;97527.54;104770;1329;22314;-84
2022/12/06 09:34:10;;;;;;;82.30;72.70;;;;;;;4.68;100.00;97524.60;104880;1320;22771;-84
2022/12/06 09:36:47;;;;;;;91.10;73.10;;;;;;;4.66;100.00;97521.66;104697;1335;22245;-84
2022/12/06 09:39:39;;;;;;;140.50;83.50;;;;;;;4.66;100.00;97517.83;104536;1330;22110;-85
2022/12/06 09:42:31;;;;;;;136.20;84.70;;;;;;;4.71;100.00;97516.59;104655;1336;22976;-85
2022/12/06 09:45:21;;;;;;;136.60;85.60;;;;;;;4.73;100.00;97506.65;104748;1330;22159;-84
2022/12/06 09:48:10;;;;;;;123.90;84.50;;;;;;;4.79;100.00;97502.96;104900;1324;22735;-85
2022/12/06 09:50:56;;;;;;;137.70;86.50;;;;;;;4.79;100.00;97493.87;104748;1334;22252;-85
2022/12/06 09:53:30;;;;;;;106.00;78.30;;;;;;;4.82;100.00;97491.63;104533;1330;22245;-85
2022/12/06 09:56:13;;;;;;;109.80;79.40;;;;;;;4.87;100.00;97489.70;104931;1323;22037;-84
2022/12/06 09:58:52;;;;;;;89.90;76.20;;;;;;;4.89;100.00;97488.20;104755;1331;22266;-85
2022/12/06 10:01:42;;;;;;;84.30;75.30;;;;;;;4.92;100.00;97489.95;104735;1334;22261;-84
2022/12/06 10:04:59;;;;;;;81.60;73.30;;;;;;;4.86;100.00;97487.88;104752;1329;22198;-85
2022/12/06 10:07:37;;;;;;;61.30;55.80;;;;;;;4.83;100.00;97489.28;104383;1330;22127;-84
2022/12/06 10:10:18;;;;;;;64.50;58.80;;;;;;;4.76;100.00;97493.94;104748;1334;22666;-84
2022/12/06 10:13:06;;;;;;;50.10;45.40;;;;;;;4.69;100.00;97490.44;104770;1334;22262;-84
2022/12/06 10:16:16;;;;;;;58.80;53.80;;;;;;;4.64;100.00;97486.60;104748;1330;22111;-87
2022/12/06 10:18:54;;;;;;;68.00;61.80;;;;;;;4.58;100.00;97489.27;104543;1326;22186;-86
2022/12/06 10:21:44;;;;;;;61.60;56.10;;;;;;;4.54;100.00;97484.06;104547;1333;22298;-85
2022/12/06 10:24:21;;;;;;;51.10;46.80;;;;;;;4.58;100.00;97482.30;104209;1338;22150;-86
2022/12/06 10:26:54;;;;;;;49.80;45.50;;;;;;;4.60;100.00;97480.73;104277;1335;22164;-86
2022/12/06 10:29:31;;;;;;;52.90;48.20;;;;;;;4.63;100.00;97484.27;104497;1320;22231;-86
2022/12/06 10:32:09;;;;;;;55.20;50.20;;;;;;;4.65;100.00;97479.19;104471;1332;22212;-86
2022/12/06 10:34:55;;;;;;;56.70;51.70;;;;;;;4.68;100.00;97482.45;104476;1334;22140;-86
2022/12/06 10:37:26;;;;;;;58.30;53.10;;;;;;;4.70;100.00;97482.06;104496;1314;22187;-86
2022/12/06 10:40:02;;;;;;;52.60;48.10;;;;;;;4.68;100.00;97480.25;104495;1334;22110;-86
2022/12/06 10:42:42;;;;;;;53.80;49.00;;;;;;;4.72;100.00;97476.08;104258;1338;22229;-86
2022/12/06 10:48:45;;;;;;;45.10;41.20;;;;;;;4.80;100.00;97466.50;104266;1335;22956;-85
2022/12/06 10:51:24;;;;;;;45.60;41.50;;;;;;;4.81;100.00;97466.38;104951;1322;22143;-85
2022/12/06 10:53:59;;;;;;;47.10;43.20;;;;;;;4.83;100.00;97456.39;104654;1330;22233;-85
2022/12/06 10:56:34;;;;;;;44.90;41.10;;;;;;;4.81;100.00;97456.88;104523;1330;22094;-85
2022/12/06 10:59:22;;;;;;;47.00;43.20;;;;;;;4.77;100.00;97457.91;104527;1330;22359;-85
2022/12/06 11:01:51;;;;;;;43.40;39.70;;;;;;;4.79;100.00;97454.53;104820;1323;22225;-85
2022/12/06 11:04:32;;;;;;;41.10;37.60;;;;;;;4.84;100.00;97447.05;104728;1329;22195;-86
2022/12/06 11:07:22;;;;;;;36.10;33.00;;;;;;;4.87;100.00;97450.83;104848;1322;22183;-85
2022/12/06 11:09:52;;;;;;;44.30;40.90;;;;;;;4.83;100.00;97455.70;104691;1330;22241;-86
2022/12/06 11:12:27;;;;;;;51.80;47.30;;;;;;;4.78;100.00;97454.91;104654;1331;22212;-85
2022/12/06 11:15:10;;;;;;;50.80;45.70;;;;;;;4.68;100.00;97451.32;104537;1336;22152;-85
2022/12/06 11:17:43;;;;;;;56.00;50.60;;;;;;;4.54;100.00;97449.27;104706;1324;22282;-85
2022/12/06 11:20:25;;;;;;;41.60;37.90;;;;;;;4.51;100.00;97453.60;104537;1331;22241;-85
2022/12/06 11:23:18;;;;;;;38.50;35.20;;;;;;;4.45;100.00;97456.91;104621;1329;22141;-86
2022/12/06 11:26:05;;;;;;;41.60;38.00;;;;;;;4.30;100.00;97455.71;104639;1330;22289;-85
2022/12/06 11:28:40;;;;;;;48.80;44.50;;;;;;;4.19;100.00;97457.86;104734;1329;22221;-85
2022/12/06 11:31:22;;;;;;;44.40;40.40;;;;;;;4.14;100.00;97459.02;104752;1327;22233;-87
2022/12/06 11:33:51;;;;;;;40.80;37.20;;;;;;;4.12;100.00;97457.38;104609;1315;22210;-86
2022/12/06 11:36:22;;;;;;;48.20;44.00;;;;;;;4.09;100.00;97459.95;104692;1329;22940;-85
2022/12/06 11:38:50;;;;;;;53.60;49.00;;;;;;;4.04;100.00;97460.85;104543;1332;23400;-86
2022/12/06 11:41:32;;;;;;;43.70;39.80;;;;;;;3.99;100.00;97458.88;104610;1330;22115;-85
2022/12/06 11:44:00;;;;;;;44.60;40.60;;;;;;;3.96;100.00;97459.08;104655;1330;22343;-85
2022/12/06 11:46:28;;;;;;;43.20;39.20;;;;;;;3.96;100.00;97449.23;104902;1314;22165;-85
2022/12/06 11:49:15;;;;;;;44.00;40.30;;;;;;;3.91;100.00;97449.27;104735;1330;22243;-85
2022/12/06 11:51:43;;;;;;;38.90;35.40;;;;;;;3.84;100.00;97454.13;104620;1329;22809;-85
2022/12/06 11:54:23;;;;;;;43.70;39.80;;;;;;;3.79;100.00;97448.36;104916;1313;22174;-85
2022/12/06 11:56:52;;;;;;;44.80;40.80;;;;;;;3.77;100.00;97451.83;104771;1322;22187;-85
2022/12/06 11:59:24;;;;;;;29.50;27.00;;;;;;;3.73;100.00;97447.98;104721;1329;22331;-85
2022/12/06 12:01:55;;;;;;;24.10;21.80;;;;;;;3.67;100.00;97450.21;104787;1329;22153;-85
2022/12/06 12:04:36;;;;;;;23.00;20.90;;;;;;;3.54;100.00;97451.05;105149;1321;22209;-85